createdAt,value
2023-04-16T00:06:21.956Z,9.23
2023-04-16T00:16:24.481Z,9.35
2023-04-16T00:26:28.345Z,9.31
2023-04-16T00:36:30.944Z,9.41
2023-04-16T00:46:35.186Z,9.61
2023-04-16T00:56:37.867Z,9.51
2023-04-16T01:06:41.618Z,9.61
2023-04-16T01:16:44.038Z,9.43
2023-04-16T01:26:47.790Z,9.46
2023-04-16T01:36:50.226Z,9.37
2023-04-16T01:46:54.553Z,9.29
2023-04-16T01:56:57.061Z,9.36
2023-04-16T02:07:01.042Z,9.54
2023-04-16T02:17:03.488Z,9.35
2023-04-16T02:27:07.255Z,9.23
2023-04-16T02:37:11.603Z,9.25
2023-04-16T02:47:15.394Z,9.11
2023-04-16T02:57:18.150Z,9.22
2023-04-16T03:07:25.872Z,9.28
2023-04-16T03:17:28.400Z,9.32
2023-04-16T03:27:32.340Z,9.33
2023-04-16T03:37:35.002Z,9.25
2023-04-16T03:47:38.929Z,9.37
2023-04-16T03:57:42.073Z,9.36
2023-04-16T04:07:45.842Z,9.14
2023-04-16T04:17:48.356Z,9.16
2023-04-16T04:27:52.310Z,9.10
2023-04-16T04:37:54.717Z,9.22
2023-04-16T04:47:58.498Z,9.14
2023-04-16T04:58:02.656Z,9.32
2023-04-16T05:08:09.683Z,9.25
2023-04-16T05:18:27.141Z,9.20
2023-04-16T05:28:31.038Z,9.32
2023-04-16T05:38:33.465Z,9.15
2023-04-16T05:48:37.216Z,9.10
2023-04-16T05:58:39.783Z,9.30
2023-04-16T06:08:43.542Z,9.25
2023-04-16T06:18:45.986Z,9.09
2023-04-16T06:28:49.967Z,9.11
2023-04-16T06:38:52.345Z,8.99
2023-04-16T06:48:56.066Z,8.95
2023-04-16T06:59:00.848Z,9.15
2023-04-16T07:09:05.794Z,9.08
2023-04-16T07:19:08.327Z,9.08
2023-04-16T07:29:12.336Z,9.05
2023-04-16T07:39:14.868Z,9.05
2023-04-16T07:49:18.585Z,9.19
2023-04-16T07:59:23.662Z,9.23
2023-04-16T08:09:28.730Z,9.16
2023-04-16T08:19:31.226Z,9.36
2023-04-16T08:29:35.778Z,9.48
2023-04-16T08:39:38.593Z,9.35
2023-04-16T08:49:44.560Z,9.19
2023-04-16T08:59:47.366Z,11.38
2023-04-16T09:09:52.886Z,11.66
2023-04-16T09:19:55.316Z,12.29
2023-04-16T09:29:59.213Z,11.03
2023-04-16T09:40:02.623Z,10.31
2023-04-16T09:50:07.018Z,10.44
2023-04-16T10:00:10.748Z,10.39
2023-04-16T10:10:14.687Z,9.88
2023-04-16T10:20:17.363Z,9.67
2023-04-16T10:30:21.697Z,10.03
2023-04-16T10:40:24.756Z,10.15
2023-04-16T10:50:36.996Z,10.14
2023-04-16T11:00:49.833Z,9.84
2023-04-16T11:10:54.293Z,9.82
2023-04-16T11:20:56.791Z,9.96
2023-04-16T11:31:01.553Z,10.01
2023-04-16T11:41:04.084Z,10.00
2023-04-16T11:51:08.419Z,10.07
2023-04-16T12:01:11.130Z,10.72
2023-04-16T12:11:14.870Z,10.69
2023-04-16T12:21:17.252Z,10.46
2023-04-16T12:31:37.705Z,10.54
2023-04-16T12:41:40.924Z,10.11
2023-04-16T12:51:44.630Z,10.29
2023-04-16T13:01:47.005Z,10.26
2023-04-16T13:11:50.999Z,10.31
2023-04-16T13:21:53.930Z,10.30
2023-04-16T13:31:58.078Z,10.43
2023-04-16T13:42:00.508Z,10.64
2023-04-16T13:52:04.248Z,10.44
2023-04-16T14:02:06.668Z,10.75
2023-04-16T14:12:10.448Z,10.77
2023-04-16T14:22:12.849Z,10.59
2023-04-16T14:32:16.633Z,10.74
2023-04-16T14:42:19.124Z,11.06
2023-04-16T14:52:22.827Z,12.02
2023-04-16T15:02:26.048Z,11.93
2023-04-16T15:12:29.936Z,11.71
2023-04-16T15:22:32.312Z,12.22
2023-04-16T15:32:36.054Z,12.68
2023-04-16T15:42:38.445Z,12.27
2023-04-16T15:52:42.365Z,12.04
2023-04-16T16:02:45.560Z,12.13
2023-04-16T16:12:49.422Z,12.35
2023-04-16T16:22:53.020Z,12.21
2023-04-16T16:32:56.931Z,12.08
2023-04-16T16:42:59.376Z,11.27
2023-04-16T16:53:03.522Z,10.95
2023-04-16T17:03:06.133Z,10.92
2023-04-16T17:13:10.043Z,10.88
2023-04-16T17:23:12.429Z,10.67
2023-04-16T17:33:17.038Z,10.46
2023-04-16T17:43:19.496Z,10.44
2023-04-16T17:53:23.211Z,10.54
2023-04-16T18:03:25.956Z,10.47
2023-04-16T18:13:29.921Z,10.49
2023-04-16T18:23:32.314Z,10.54
2023-04-16T18:33:53.958Z,10.39
2023-04-16T18:43:57.565Z,10.49
2023-04-16T18:54:01.365Z,10.27
2023-04-16T19:04:03.837Z,10.29
2023-04-16T19:14:08.170Z,10.12
2023-04-16T19:24:10.642Z,10.16
2023-04-16T19:34:15.245Z,10.14
2023-04-16T19:44:17.642Z,9.81
2023-04-16T19:54:21.423Z,10.14
2023-04-16T20:04:23.972Z,9.93
2023-04-16T20:14:27.740Z,10.23
2023-04-16T20:24:31.302Z,10.23
2023-04-16T20:34:35.024Z,9.98
2023-04-16T20:44:41.064Z,10.05
2023-04-16T20:54:44.919Z,10.04
2023-04-16T21:04:47.479Z,10.08
2023-04-16T21:14:51.441Z,10.09
2023-04-16T21:24:53.829Z,10.14
2023-04-16T21:34:57.503Z,10.16
2023-04-16T21:44:59.907Z,10.08
2023-04-16T21:55:03.962Z,10.14
2023-04-16T22:05:07.360Z,9.96
2023-04-16T22:15:11.736Z,10.11
2023-04-16T22:25:14.102Z,9.94
2023-04-16T22:35:17.790Z,9.96
2023-04-16T22:45:20.147Z,9.74
2023-04-16T22:55:23.952Z,10.08
2023-04-16T23:05:26.387Z,9.95
2023-04-16T23:15:30.530Z,10.08
2023-04-16T23:25:32.960Z,9.89
2023-04-16T23:35:36.856Z,9.80
2023-04-16T23:45:39.265Z,9.83
2023-04-16T23:55:43.050Z,9.76
